sensor_id;sensor_type;location;lat;lon;timestamp;P1;durP1;ratioP1;P2;durP2;ratioP2
45548;SDS011;31270;48.328;10.096;2023-04-25T00:01:14;4.83;;;3.97;;
45548;SDS011;31270;48.328;10.096;2023-04-25T00:03:40;5.03;;;4.03;;
45548;SDS011;31270;48.328;10.096;2023-04-25T00:06:06;11.87;;;4.50;;
45548;SDS011;31270;48.328;10.096;2023-04-25T00:08:32;6.17;;;3.90;;
45548;SDS011;31270;48.328;10.096;2023-04-25T00:10:58;6.40;;;4.53;;
45548;SDS011;31270;48.328;10.096;2023-04-25T00:13:24;5.23;;;4.50;;
45548;SDS011;31270;48.328;10.096;2023-04-25T00:15:51;6.10;;;4.40;;
45548;SDS011;31270;48.328;10.096;2023-04-25T00:18:18;4.83;;;4.30;;
45548;SDS011;31270;48.328;10.096;2023-04-25T00:20:45;6.30;;;4.07;;
45548;SDS011;31270;48.328;10.096;2023-04-25T00:23:16;6.57;;;4.90;;
45548;SDS011;31270;48.328;10.096;2023-04-25T00:25:45;5.87;;;4.50;;
45548;SDS011;31270;48.328;10.096;2023-04-25T00:28:12;5.37;;;4.50;;
45548;SDS011;31270;48.328;10.096;2023-04-25T00:30:38;5.13;;;4.43;;
45548;SDS011;31270;48.328;10.096;2023-04-25T00:33:05;7.83;;;4.23;;
45548;SDS011;31270;48.328;10.096;2023-04-25T00:35:31;6.53;;;4.40;;
45548;SDS011;31270;48.328;10.096;2023-04-25T00:37:57;7.57;;;4.60;;
45548;SDS011;31270;48.328;10.096;2023-04-25T00:40:22;6.50;;;4.70;;
45548;SDS011;31270;48.328;10.096;2023-04-25T00:42:48;5.43;;;4.03;;
45548;SDS011;31270;48.328;10.096;2023-04-25T00:45:16;6.67;;;4.90;;
45548;SDS011;31270;48.328;10.096;2023-04-25T00:47:42;5.70;;;4.40;;
45548;SDS011;31270;48.328;10.096;2023-04-25T00:50:09;6.93;;;4.77;;
45548;SDS011;31270;48.328;10.096;2023-04-25T00:52:36;7.23;;;4.80;;
45548;SDS011;31270;48.328;10.096;2023-04-25T00:55:05;5.60;;;5.00;;
45548;SDS011;31270;48.328;10.096;2023-04-25T00:57:31;6.83;;;5.00;;
45548;SDS011;31270;48.328;10.096;2023-04-25T00:59:56;5.20;;;4.70;;
45548;SDS011;31270;48.328;10.096;2023-04-25T01:02:23;10.73;;;4.63;;
45548;SDS011;31270;48.328;10.096;2023-04-25T01:04:50;5.53;;;4.70;;
45548;SDS011;31270;48.328;10.096;2023-04-25T01:07:16;6.50;;;4.83;;
45548;SDS011;31270;48.328;10.096;2023-04-25T01:09:42;6.63;;;4.70;;
45548;SDS011;31270;48.328;10.096;2023-04-25T01:12:08;5.70;;;4.77;;
45548;SDS011;31270;48.328;10.096;2023-04-25T01:14:33;7.10;;;5.27;;
45548;SDS011;31270;48.328;10.096;2023-04-25T01:16:59;8.43;;;5.20;;
45548;SDS011;31270;48.328;10.096;2023-04-25T01:19:25;7.40;;;4.90;;
45548;SDS011;31270;48.328;10.096;2023-04-25T01:21:51;7.20;;;4.97;;
45548;SDS011;31270;48.328;10.096;2023-04-25T01:24:17;6.67;;;4.67;;
45548;SDS011;31270;48.328;10.096;2023-04-25T01:26:43;5.93;;;4.83;;
45548;SDS011;31270;48.328;10.096;2023-04-25T01:29:14;6.97;;;4.93;;
45548;SDS011;31270;48.328;10.096;2023-04-25T01:31:41;7.70;;;5.17;;
45548;SDS011;31270;48.328;10.096;2023-04-25T01:34:07;6.40;;;4.93;;
45548;SDS011;31270;48.328;10.096;2023-04-25T01:36:33;7.17;;;4.90;;
45548;SDS011;31270;48.328;10.096;2023-04-25T01:39:00;8.33;;;4.83;;
45548;SDS011;31270;48.328;10.096;2023-04-25T01:41:26;7.70;;;5.47;;
45548;SDS011;31270;48.328;10.096;2023-04-25T01:43:52;5.97;;;4.80;;
45548;SDS011;31270;48.328;10.096;2023-04-25T01:46:18;7.63;;;5.10;;
45548;SDS011;31270;48.328;10.096;2023-04-25T01:48:44;8.87;;;6.10;;
45548;SDS011;31270;48.328;10.096;2023-04-25T01:51:09;10.60;;;5.23;;
45548;SDS011;31270;48.328;10.096;2023-04-25T01:53:36;8.20;;;5.67;;
45548;SDS011;31270;48.328;10.096;2023-04-25T01:56:02;7.47;;;5.40;;
45548;SDS011;31270;48.328;10.096;2023-04-25T01:58:28;11.03;;;4.83;;
45548;SDS011;31270;48.328;10.096;2023-04-25T02:00:54;12.10;;;5.27;;
45548;SDS011;31270;48.328;10.096;2023-04-25T02:03:20;6.30;;;5.00;;
45548;SDS011;31270;48.328;10.096;2023-04-25T02:05:46;8.03;;;5.17;;
45548;SDS011;31270;48.328;10.096;2023-04-25T02:08:11;11.13;;;5.50;;
45548;SDS011;31270;48.328;10.096;2023-04-25T02:10:37;7.10;;;4.90;;
45548;SDS011;31270;48.328;10.096;2023-04-25T02:13:03;8.47;;;5.60;;
45548;SDS011;31270;48.328;10.096;2023-04-25T02:15:30;8.80;;;5.77;;
45548;SDS011;31270;48.328;10.096;2023-04-25T02:17:56;7.87;;;5.20;;
45548;SDS011;31270;48.328;10.096;2023-04-25T02:20:23;6.43;;;5.40;;
45548;SDS011;31270;48.328;10.096;2023-04-25T02:22:49;6.20;;;5.13;;
45548;SDS011;31270;48.328;10.096;2023-04-25T02:25:17;6.80;;;5.23;;
45548;SDS011;31270;48.328;10.096;2023-04-25T02:27:44;8.10;;;5.23;;
45548;SDS011;31270;48.328;10.096;2023-04-25T02:30:10;5.77;;;4.90;;
45548;SDS011;31270;48.328;10.096;2023-04-25T02:32:36;8.63;;;4.70;;
45548;SDS011;31270;48.328;10.096;2023-04-25T02:35:02;6.80;;;5.00;;
45548;SDS011;31270;48.328;10.096;2023-04-25T02:37:29;6.70;;;4.57;;
45548;SDS011;31270;48.328;10.096;2023-04-25T02:39:56;5.67;;;4.80;;
45548;SDS011;31270;48.328;10.096;2023-04-25T02:42:21;6.60;;;4.93;;
45548;SDS011;31270;48.328;10.096;2023-04-25T02:44:47;8.97;;;4.60;;
45548;SDS011;31270;48.328;10.096;2023-04-25T02:47:12;6.80;;;4.43;;
45548;SDS011;31270;48.328;10.096;2023-04-25T02:49:38;6.17;;;4.57;;
45548;SDS011;31270;48.328;10.096;2023-04-25T02:52:04;6.73;;;4.43;;
45548;SDS011;31270;48.328;10.096;2023-04-25T02:54:30;6.00;;;4.10;;
45548;SDS011;31270;48.328;10.096;2023-04-25T02:56:56;5.90;;;3.83;;
45548;SDS011;31270;48.328;10.096;2023-04-25T02:59:22;5.20;;;3.90;;
45548;SDS011;31270;48.328;10.096;2023-04-25T03:01:48;6.40;;;3.67;;
45548;SDS011;31270;48.328;10.096;2023-04-25T03:04:14;7.47;;;3.30;;
45548;SDS011;31270;48.328;10.096;2023-04-25T03:06:40;9.67;;;3.70;;
45548;SDS011;31270;48.328;10.096;2023-04-25T03:09:06;7.37;;;4.03;;
45548;SDS011;31270;48.328;10.096;2023-04-25T03:11:32;6.07;;;3.77;;
45548;SDS011;31270;48.328;10.096;2023-04-25T03:13:58;5.37;;;3.67;;
45548;SDS011;31270;48.328;10.096;2023-04-25T03:16:23;4.57;;;3.63;;
45548;SDS011;31270;48.328;10.096;2023-04-25T03:18:49;6.70;;;3.90;;
45548;SDS011;31270;48.328;10.096;2023-04-25T03:21:15;5.70;;;3.87;;
45548;SDS011;31270;48.328;10.096;2023-04-25T03:23:41;7.57;;;3.57;;
45548;SDS011;31270;48.328;10.096;2023-04-25T03:26:07;9.33;;;4.30;;
45548;SDS011;31270;48.328;10.096;2023-04-25T03:28:33;6.40;;;3.97;;
45548;SDS011;31270;48.328;10.096;2023-04-25T03:30:59;3.97;;;3.50;;
45548;SDS011;31270;48.328;10.096;2023-04-25T03:33:25;5.40;;;4.20;;
45548;SDS011;31270;48.328;10.096;2023-04-25T03:35:50;6.40;;;4.30;;
45548;SDS011;31270;48.328;10.096;2023-04-25T03:38:17;4.73;;;4.00;;
45548;SDS011;31270;48.328;10.096;2023-04-25T03:40:43;7.67;;;4.67;;
45548;SDS011;31270;48.328;10.096;2023-04-25T03:43:09;7.13;;;4.23;;
45548;SDS011;31270;48.328;10.096;2023-04-25T03:45:36;9.47;;;4.30;;
45548;SDS011;31270;48.328;10.096;2023-04-25T03:48:01;6.60;;;4.60;;
45548;SDS011;31270;48.328;10.096;2023-04-25T03:50:27;6.13;;;4.50;;
45548;SDS011;31270;48.328;10.096;2023-04-25T03:52:53;6.47;;;4.80;;
45548;SDS011;31270;48.328;10.096;2023-04-25T03:55:19;6.60;;;4.20;;
45548;SDS011;31270;48.328;10.096;2023-04-25T03:57:45;5.77;;;4.30;;
45548;SDS011;31270;48.328;10.096;2023-04-25T04:00:11;6.27;;;4.03;;
45548;SDS011;31270;48.328;10.096;2023-04-25T04:02:38;6.27;;;4.47;;
45548;SDS011;31270;48.328;10.096;2023-04-25T04:05:04;7.00;;;4.27;;
45548;SDS011;31270;48.328;10.096;2023-04-25T04:07:30;9.07;;;4.60;;
45548;SDS011;31270;48.328;10.096;2023-04-25T04:09:58;6.37;;;4.20;;
45548;SDS011;31270;48.328;10.096;2023-04-25T04:12:25;6.67;;;3.90;;
45548;SDS011;31270;48.328;10.096;2023-04-25T04:14:51;7.53;;;3.97;;
45548;SDS011;31270;48.328;10.096;2023-04-25T04:17:17;4.77;;;3.80;;
45548;SDS011;31270;48.328;10.096;2023-04-25T04:19:43;7.20;;;4.00;;
45548;SDS011;31270;48.328;10.096;2023-04-25T04:22:09;7.33;;;4.30;;
45548;SDS011;31270;48.328;10.096;2023-04-25T04:24:36;5.53;;;4.20;;
45548;SDS011;31270;48.328;10.096;2023-04-25T04:27:01;4.80;;;3.90;;
45548;SDS011;31270;48.328;10.096;2023-04-25T04:29:28;6.20;;;4.40;;
45548;SDS011;31270;48.328;10.096;2023-04-25T04:31:53;5.83;;;3.70;;
45548;SDS011;31270;48.328;10.096;2023-04-25T04:34:19;6.10;;;3.90;;
45548;SDS011;31270;48.328;10.096;2023-04-25T04:36:46;5.50;;;3.60;;
45548;SDS011;31270;48.328;10.096;2023-04-25T04:39:15;5.10;;;3.50;;
45548;SDS011;31270;48.328;10.096;2023-04-25T04:41:41;7.70;;;4.07;;
45548;SDS011;31270;48.328;10.096;2023-04-25T04:44:09;4.50;;;3.07;;
45548;SDS011;31270;48.328;10.096;2023-04-25T04:46:38;5.47;;;3.60;;
45548;SDS011;31270;48.328;10.096;2023-04-25T04:49:06;6.70;;;3.70;;
45548;SDS011;31270;48.328;10.096;2023-04-25T04:51:31;4.87;;;3.53;;
45548;SDS011;31270;48.328;10.096;2023-04-25T04:53:58;6.43;;;4.10;;
45548;SDS011;31270;48.328;10.096;2023-04-25T04:56:27;5.90;;;4.40;;
45548;SDS011;31270;48.328;10.096;2023-04-25T04:58:55;6.60;;;4.40;;
45548;SDS011;31270;48.328;10.096;2023-04-25T05:01:20;6.87;;;4.27;;
45548;SDS011;31270;48.328;10.096;2023-04-25T05:03:53;6.33;;;4.90;;
45548;SDS011;31270;48.328;10.096;2023-04-25T05:06:18;9.20;;;4.37;;
45548;SDS011;31270;48.328;10.096;2023-04-25T05:08:44;7.40;;;4.97;;
45548;SDS011;31270;48.328;10.096;2023-04-25T05:11:10;5.73;;;4.50;;
45548;SDS011;31270;48.328;10.096;2023-04-25T05:13:36;6.47;;;4.53;;
45548;SDS011;31270;48.328;10.096;2023-04-25T05:16:02;6.67;;;4.50;;
45548;SDS011;31270;48.328;10.096;2023-04-25T05:18:27;7.37;;;4.70;;
45548;SDS011;31270;48.328;10.096;2023-04-25T05:20:53;9.33;;;4.33;;
45548;SDS011;31270;48.328;10.096;2023-04-25T05:23:19;5.37;;;4.40;;
45548;SDS011;31270;48.328;10.096;2023-04-25T05:25:44;8.53;;;4.37;;
45548;SDS011;31270;48.328;10.096;2023-04-25T05:28:12;6.77;;;4.27;;
45548;SDS011;31270;48.328;10.096;2023-04-25T05:30:38;8.10;;;4.67;;
45548;SDS011;31270;48.328;10.096;2023-04-25T05:33:03;7.63;;;4.03;;
45548;SDS011;31270;48.328;10.096;2023-04-25T05:35:30;8.67;;;4.30;;
45548;SDS011;31270;48.328;10.096;2023-04-25T05:37:55;5.70;;;4.47;;
45548;SDS011;31270;48.328;10.096;2023-04-25T05:40:21;4.97;;;4.13;;
45548;SDS011;31270;48.328;10.096;2023-04-25T05:42:47;7.00;;;4.13;;
45548;SDS011;31270;48.328;10.096;2023-04-25T05:45:13;6.13;;;4.03;;
45548;SDS011;31270;48.328;10.096;2023-04-25T05:47:39;4.67;;;3.97;;
45548;SDS011;31270;48.328;10.096;2023-04-25T05:50:06;7.50;;;3.90;;
45548;SDS011;31270;48.328;10.096;2023-04-25T05:52:33;4.40;;;3.80;;
45548;SDS011;31270;48.328;10.096;2023-04-25T05:54:59;5.13;;;4.07;;
45548;SDS011;31270;48.328;10.096;2023-04-25T05:57:25;7.27;;;4.27;;
45548;SDS011;31270;48.328;10.096;2023-04-25T05:59:52;6.90;;;3.97;;
45548;SDS011;31270;48.328;10.096;2023-04-25T06:02:19;4.80;;;3.67;;
45548;SDS011;31270;48.328;10.096;2023-04-25T06:04:49;5.33;;;4.23;;
45548;SDS011;31270;48.328;10.096;2023-04-25T06:07:16;6.00;;;3.73;;
45548;SDS011;31270;48.328;10.096;2023-04-25T06:09:43;6.67;;;3.80;;
45548;SDS011;31270;48.328;10.096;2023-04-25T06:12:09;5.50;;;4.23;;
45548;SDS011;31270;48.328;10.096;2023-04-25T06:14:35;7.13;;;3.83;;
45548;SDS011;31270;48.328;10.096;2023-04-25T06:17:01;5.60;;;3.93;;
45548;SDS011;31270;48.328;10.096;2023-04-25T06:19:34;6.37;;;4.13;;
45548;SDS011;31270;48.328;10.096;2023-04-25T06:22:01;5.40;;;3.47;;
45548;SDS011;31270;48.328;10.096;2023-04-25T06:24:27;4.93;;;3.53;;
45548;SDS011;31270;48.328;10.096;2023-04-25T06:26:53;5.77;;;3.93;;
45548;SDS011;31270;48.328;10.096;2023-04-25T06:29:19;5.07;;;3.63;;
45548;SDS011;31270;48.328;10.096;2023-04-25T06:31:45;5.37;;;3.53;;
45548;SDS011;31270;48.328;10.096;2023-04-25T06:34:11;7.47;;;3.37;;
45548;SDS011;31270;48.328;10.096;2023-04-25T06:36:37;4.50;;;4.00;;
45548;SDS011;31270;48.328;10.096;2023-04-25T06:39:03;5.33;;;3.80;;
45548;SDS011;31270;48.328;10.096;2023-04-25T06:41:29;5.13;;;3.70;;
45548;SDS011;31270;48.328;10.096;2023-04-25T06:43:55;6.37;;;3.43;;
45548;SDS011;31270;48.328;10.096;2023-04-25T06:46:21;6.30;;;3.30;;
45548;SDS011;31270;48.328;10.096;2023-04-25T06:48:47;4.97;;;3.47;;
45548;SDS011;31270;48.328;10.096;2023-04-25T06:51:13;4.40;;;3.17;;
45548;SDS011;31270;48.328;10.096;2023-04-25T06:53:39;4.37;;;3.20;;
45548;SDS011;31270;48.328;10.096;2023-04-25T06:56:05;6.23;;;3.27;;
45548;SDS011;31270;48.328;10.096;2023-04-25T06:58:31;4.93;;;3.50;;
45548;SDS011;31270;48.328;10.096;2023-04-25T07:00:58;5.60;;;3.57;;
45548;SDS011;31270;48.328;10.096;2023-04-25T07:03:23;4.73;;;3.63;;
45548;SDS011;31270;48.328;10.096;2023-04-25T07:05:49;5.43;;;3.00;;
45548;SDS011;31270;48.328;10.096;2023-04-25T07:08:15;6.40;;;3.00;;
45548;SDS011;31270;48.328;10.096;2023-04-25T07:10:41;3.37;;;3.07;;
45548;SDS011;31270;48.328;10.096;2023-04-25T07:13:07;6.70;;;3.10;;
45548;SDS011;31270;48.328;10.096;2023-04-25T07:15:33;3.60;;;2.83;;
45548;SDS011;31270;48.328;10.096;2023-04-25T07:17:59;4.13;;;2.93;;
45548;SDS011;31270;48.328;10.096;2023-04-25T07:20:26;6.07;;;3.73;;
45548;SDS011;31270;48.328;10.096;2023-04-25T07:22:52;5.17;;;3.23;;
45548;SDS011;31270;48.328;10.096;2023-04-25T07:25:19;6.80;;;3.37;;
45548;SDS011;31270;48.328;10.096;2023-04-25T07:27:45;3.90;;;3.30;;
45548;SDS011;31270;48.328;10.096;2023-04-25T07:30:11;4.00;;;3.10;;
45548;SDS011;31270;48.328;10.096;2023-04-25T07:32:37;6.80;;;3.37;;
45548;SDS011;31270;48.328;10.096;2023-04-25T07:35:03;4.03;;;3.00;;
45548;SDS011;31270;48.328;10.096;2023-04-25T07:37:29;3.93;;;3.13;;
45548;SDS011;31270;48.328;10.096;2023-04-25T07:39:55;5.83;;;3.60;;
45548;SDS011;31270;48.328;10.096;2023-04-25T07:42:20;5.47;;;3.20;;
45548;SDS011;31270;48.328;10.096;2023-04-25T07:44:46;5.60;;;3.40;;
45548;SDS011;31270;48.328;10.096;2023-04-25T07:47:12;4.47;;;3.00;;
45548;SDS011;31270;48.328;10.096;2023-04-25T07:49:38;3.50;;;3.07;;
45548;SDS011;31270;48.328;10.096;2023-04-25T07:52:05;4.47;;;3.53;;
45548;SDS011;31270;48.328;10.096;2023-04-25T07:54:31;4.80;;;3.03;;
45548;SDS011;31270;48.328;10.096;2023-04-25T07:56:57;6.43;;;3.57;;
45548;SDS011;31270;48.328;10.096;2023-04-25T07:59:23;6.50;;;2.97;;
45548;SDS011;31270;48.328;10.096;2023-04-25T08:01:49;4.67;;;3.40;;
45548;SDS011;31270;48.328;10.096;2023-04-25T08:04:15;5.57;;;3.10;;
45548;SDS011;31270;48.328;10.096;2023-04-25T08:06:41;3.40;;;3.10;;
45548;SDS011;31270;48.328;10.096;2023-04-25T08:09:07;6.90;;;3.60;;
45548;SDS011;31270;48.328;10.096;2023-04-25T08:11:34;5.53;;;3.40;;
45548;SDS011;31270;48.328;10.096;2023-04-25T08:14:00;4.00;;;3.33;;
45548;SDS011;31270;48.328;10.096;2023-04-25T08:16:26;4.10;;;3.00;;
45548;SDS011;31270;48.328;10.096;2023-04-25T08:18:52;3.60;;;3.30;;
45548;SDS011;31270;48.328;10.096;2023-04-25T08:21:18;6.30;;;3.10;;
45548;SDS011;31270;48.328;10.096;2023-04-25T08:23:44;4.77;;;3.40;;
45548;SDS011;31270;48.328;10.096;2023-04-25T08:26:11;4.33;;;3.30;;
45548;SDS011;31270;48.328;10.096;2023-04-25T08:28:37;3.37;;;2.90;;
45548;SDS011;31270;48.328;10.096;2023-04-25T08:31:03;6.33;;;3.10;;
45548;SDS011;31270;48.328;10.096;2023-04-25T08:33:29;4.93;;;3.10;;
45548;SDS011;31270;48.328;10.096;2023-04-25T08:35:57;4.90;;;3.20;;
45548;SDS011;31270;48.328;10.096;2023-04-25T08:38:23;4.27;;;3.13;;
45548;SDS011;31270;48.328;10.096;2023-04-25T08:40:49;4.90;;;3.43;;
45548;SDS011;31270;48.328;10.096;2023-04-25T08:43:19;4.37;;;3.40;;
45548;SDS011;31270;48.328;10.096;2023-04-25T08:45:45;4.70;;;3.63;;
45548;SDS011;31270;48.328;10.096;2023-04-25T08:48:12;6.33;;;3.53;;
45548;SDS011;31270;48.328;10.096;2023-04-25T08:50:48;3.87;;;3.47;;
45548;SDS011;31270;48.328;10.096;2023-04-25T08:53:17;7.10;;;3.53;;
45548;SDS011;31270;48.328;10.096;2023-04-25T08:55:46;7.33;;;3.70;;
45548;SDS011;31270;48.328;10.096;2023-04-25T08:58:15;5.23;;;3.60;;
45548;SDS011;31270;48.328;10.096;2023-04-25T09:00:41;7.17;;;4.33;;
45548;SDS011;31270;48.328;10.096;2023-04-25T09:03:06;5.00;;;3.60;;
45548;SDS011;31270;48.328;10.096;2023-04-25T09:05:32;4.07;;;3.50;;
45548;SDS011;31270;48.328;10.096;2023-04-25T09:07:59;5.50;;;3.57;;
45548;SDS011;31270;48.328;10.096;2023-04-25T09:10:26;3.67;;;3.20;;
45548;SDS011;31270;48.328;10.096;2023-04-25T09:15:49;5.40;;;3.30;;
45548;SDS011;31270;48.328;10.096;2023-04-25T09:18:26;6.93;;;3.33;;
45548;SDS011;31270;48.328;10.096;2023-04-25T09:20:54;4.97;;;3.90;;
45548;SDS011;31270;48.328;10.096;2023-04-25T09:23:21;5.63;;;2.83;;
45548;SDS011;31270;48.328;10.096;2023-04-25T09:25:48;3.87;;;3.33;;
45548;SDS011;31270;48.328;10.096;2023-04-25T09:28:15;4.73;;;3.50;;
45548;SDS011;31270;48.328;10.096;2023-04-25T09:30:41;4.83;;;3.10;;
45548;SDS011;31270;48.328;10.096;2023-04-25T09:33:08;3.53;;;2.70;;
45548;SDS011;31270;48.328;10.096;2023-04-25T09:35:38;3.10;;;2.80;;
45548;SDS011;31270;48.328;10.096;2023-04-25T09:38:10;3.67;;;2.67;;
45548;SDS011;31270;48.328;10.096;2023-04-25T09:40:43;2.70;;;2.50;;
45548;SDS011;31270;48.328;10.096;2023-04-25T09:43:20;4.07;;;2.97;;
45548;SDS011;31270;48.328;10.096;2023-04-25T09:45:48;4.27;;;3.17;;
45548;SDS011;31270;48.328;10.096;2023-04-25T09:48:17;4.20;;;3.13;;
45548;SDS011;31270;48.328;10.096;2023-04-25T09:50:44;8.17;;;3.57;;
45548;SDS011;31270;48.328;10.096;2023-04-25T09:53:10;5.63;;;2.60;;
45548;SDS011;31270;48.328;10.096;2023-04-25T09:55:36;6.20;;;2.50;;
45548;SDS011;31270;48.328;10.096;2023-04-25T09:58:04;5.20;;;2.60;;
45548;SDS011;31270;48.328;10.096;2023-04-25T10:00:32;3.53;;;2.40;;
45548;SDS011;31270;48.328;10.096;2023-04-25T10:03:00;3.10;;;2.53;;
45548;SDS011;31270;48.328;10.096;2023-04-25T10:05:30;3.47;;;2.50;;
45548;SDS011;31270;48.328;10.096;2023-04-25T10:08:02;7.30;;;3.00;;
45548;SDS011;31270;48.328;10.096;2023-04-25T10:10:31;6.03;;;2.40;;
45548;SDS011;31270;48.328;10.096;2023-04-25T10:13:01;4.60;;;2.43;;
45548;SDS011;31270;48.328;10.096;2023-04-25T10:15:29;2.50;;;2.30;;
45548;SDS011;31270;48.328;10.096;2023-04-25T10:17:56;2.73;;;2.03;;
45548;SDS011;31270;48.328;10.096;2023-04-25T10:20:22;3.27;;;2.97;;
45548;SDS011;31270;48.328;10.096;2023-04-25T10:22:49;5.33;;;3.10;;
45548;SDS011;31270;48.328;10.096;2023-04-25T10:25:19;4.80;;;3.43;;
45548;SDS011;31270;48.328;10.096;2023-04-25T10:27:45;5.73;;;3.20;;
45548;SDS011;31270;48.328;10.096;2023-04-25T10:30:14;4.67;;;3.40;;
45548;SDS011;31270;48.328;10.096;2023-04-25T10:32:44;5.97;;;2.90;;
45548;SDS011;31270;48.328;10.096;2023-04-25T10:37:57;3.50;;;2.83;;
45548;SDS011;31270;48.328;10.096;2023-04-25T10:40:36;6.10;;;3.60;;
45548;SDS011;31270;48.328;10.096;2023-04-25T10:46:17;5.50;;;3.27;;
45548;SDS011;31270;48.328;10.096;2023-04-25T10:48:56;3.20;;;2.83;;
45548;SDS011;31270;48.328;10.096;2023-04-25T10:51:24;4.80;;;3.23;;
45548;SDS011;31270;48.328;10.096;2023-04-25T10:56:21;3.73;;;2.90;;
45548;SDS011;31270;48.328;10.096;2023-04-25T10:58:49;3.80;;;3.33;;
45548;SDS011;31270;48.328;10.096;2023-04-25T11:01:19;4.43;;;3.50;;
45548;SDS011;31270;48.328;10.096;2023-04-25T11:04:05;3.67;;;3.20;;
45548;SDS011;31270;48.328;10.096;2023-04-25T11:06:34;4.23;;;3.27;;
45548;SDS011;31270;48.328;10.096;2023-04-25T11:09:10;5.33;;;3.40;;
45548;SDS011;31270;48.328;10.096;2023-04-25T11:11:38;5.63;;;3.73;;
45548;SDS011;31270;48.328;10.096;2023-04-25T11:14:05;4.97;;;3.60;;
45548;SDS011;31270;48.328;10.096;2023-04-25T11:16:31;4.27;;;2.83;;
45548;SDS011;31270;48.328;10.096;2023-04-25T11:18:58;3.80;;;2.73;;
45548;SDS011;31270;48.328;10.096;2023-04-25T11:21:27;3.33;;;2.87;;
45548;SDS011;31270;48.328;10.096;2023-04-25T11:23:56;2.90;;;2.63;;
45548;SDS011;31270;48.328;10.096;2023-04-25T11:26:21;3.37;;;2.93;;
45548;SDS011;31270;48.328;10.096;2023-04-25T11:28:48;4.93;;;2.90;;
45548;SDS011;31270;48.328;10.096;2023-04-25T11:31:14;3.57;;;2.80;;
45548;SDS011;31270;48.328;10.096;2023-04-25T11:33:40;3.73;;;2.87;;
45548;SDS011;31270;48.328;10.096;2023-04-25T11:36:06;3.43;;;2.87;;
45548;SDS011;31270;48.328;10.096;2023-04-25T11:38:32;3.13;;;2.83;;
45548;SDS011;31270;48.328;10.096;2023-04-25T11:40:58;3.70;;;2.70;;
45548;SDS011;31270;48.328;10.096;2023-04-25T11:46:09;3.53;;;3.07;;
45548;SDS011;31270;48.328;10.096;2023-04-25T11:48:38;5.20;;;2.90;;
45548;SDS011;31270;48.328;10.096;2023-04-25T11:51:05;3.57;;;2.40;;
45548;SDS011;31270;48.328;10.096;2023-04-25T11:53:31;3.27;;;2.97;;
45548;SDS011;31270;48.328;10.096;2023-04-25T11:55:57;3.33;;;2.90;;
45548;SDS011;31270;48.328;10.096;2023-04-25T11:58:25;3.33;;;2.97;;
45548;SDS011;31270;48.328;10.096;2023-04-25T12:00:51;4.77;;;2.93;;
45548;SDS011;31270;48.328;10.096;2023-04-25T12:03:17;3.67;;;3.03;;
45548;SDS011;31270;48.328;10.096;2023-04-25T12:05:44;3.07;;;2.77;;
45548;SDS011;31270;48.328;10.096;2023-04-25T12:08:13;2.97;;;2.67;;
45548;SDS011;31270;48.328;10.096;2023-04-25T12:10:43;3.43;;;2.20;;
45548;SDS011;31270;48.328;10.096;2023-04-25T12:15:46;3.27;;;2.33;;
45548;SDS011;31270;48.328;10.096;2023-04-25T12:18:12;2.70;;;2.50;;
45548;SDS011;31270;48.328;10.096;2023-04-25T12:20:38;2.50;;;2.30;;
45548;SDS011;31270;48.328;10.096;2023-04-25T12:23:06;3.20;;;2.70;;
45548;SDS011;31270;48.328;10.096;2023-04-25T12:28:15;3.47;;;2.60;;
45548;SDS011;31270;48.328;10.096;2023-04-25T12:31:07;3.10;;;2.67;;
45548;SDS011;31270;48.328;10.096;2023-04-25T12:33:34;2.10;;;2.00;;
45548;SDS011;31270;48.328;10.096;2023-04-25T12:36:02;2.30;;;2.10;;
45548;SDS011;31270;48.328;10.096;2023-04-25T12:38:35;3.93;;;2.30;;
45548;SDS011;31270;48.328;10.096;2023-04-25T12:41:02;3.30;;;3.00;;
45548;SDS011;31270;48.328;10.096;2023-04-25T12:43:28;3.37;;;2.73;;
45548;SDS011;31270;48.328;10.096;2023-04-25T12:45:54;3.37;;;3.03;;
45548;SDS011;31270;48.328;10.096;2023-04-25T12:48:21;3.90;;;3.10;;
45548;SDS011;31270;48.328;10.096;2023-04-25T12:50:48;3.50;;;3.20;;
45548;SDS011;31270;48.328;10.096;2023-04-25T12:53:16;5.30;;;3.23;;
45548;SDS011;31270;48.328;10.096;2023-04-25T12:55:46;3.73;;;3.17;;
45548;SDS011;31270;48.328;10.096;2023-04-25T12:58:14;3.40;;;3.10;;
45548;SDS011;31270;48.328;10.096;2023-04-25T13:00:40;4.53;;;3.87;;
45548;SDS011;31270;48.328;10.096;2023-04-25T13:03:06;4.10;;;3.67;;
45548;SDS011;31270;48.328;10.096;2023-04-25T13:05:33;5.07;;;4.17;;
45548;SDS011;31270;48.328;10.096;2023-04-25T13:07:59;3.57;;;3.27;;
45548;SDS011;31270;48.328;10.096;2023-04-25T13:10:25;3.50;;;2.90;;
45548;SDS011;31270;48.328;10.096;2023-04-25T13:12:50;2.60;;;2.40;;
45548;SDS011;31270;48.328;10.096;2023-04-25T13:15:16;3.23;;;2.87;;
45548;SDS011;31270;48.328;10.096;2023-04-25T13:17:42;2.80;;;2.50;;
45548;SDS011;31270;48.328;10.096;2023-04-25T13:20:08;2.67;;;2.00;;
45548;SDS011;31270;48.328;10.096;2023-04-25T13:22:35;2.20;;;2.00;;
45548;SDS011;31270;48.328;10.096;2023-04-25T13:25:04;2.80;;;2.30;;
45548;SDS011;31270;48.328;10.096;2023-04-25T13:27:31;2.07;;;1.90;;
45548;SDS011;31270;48.328;10.096;2023-04-25T13:29:58;1.87;;;1.77;;
45548;SDS011;31270;48.328;10.096;2023-04-25T13:32:25;3.10;;;2.00;;
45548;SDS011;31270;48.328;10.096;2023-04-25T13:34:51;2.33;;;2.07;;
45548;SDS011;31270;48.328;10.096;2023-04-25T13:37:17;2.43;;;2.10;;
45548;SDS011;31270;48.328;10.096;2023-04-25T13:39:43;2.23;;;1.73;;
45548;SDS011;31270;48.328;10.096;2023-04-25T13:42:09;3.73;;;1.90;;
45548;SDS011;31270;48.328;10.096;2023-04-25T13:44:36;2.30;;;2.10;;
45548;SDS011;31270;48.328;10.096;2023-04-25T13:47:01;1.77;;;1.67;;
45548;SDS011;31270;48.328;10.096;2023-04-25T13:49:27;2.03;;;1.80;;
45548;SDS011;31270;48.328;10.096;2023-04-25T13:51:53;2.93;;;2.20;;
45548;SDS011;31270;48.328;10.096;2023-04-25T13:54:19;2.60;;;2.37;;
45548;SDS011;31270;48.328;10.096;2023-04-25T13:56:45;2.43;;;2.07;;
45548;SDS011;31270;48.328;10.096;2023-04-25T13:59:11;2.87;;;2.67;;
45548;SDS011;31270;48.328;10.096;2023-04-25T14:01:37;3.33;;;2.37;;
45548;SDS011;31270;48.328;10.096;2023-04-25T14:04:03;2.77;;;2.57;;
45548;SDS011;31270;48.328;10.096;2023-04-25T14:06:30;2.93;;;2.53;;
45548;SDS011;31270;48.328;10.096;2023-04-25T14:08:57;4.17;;;2.70;;
45548;SDS011;31270;48.328;10.096;2023-04-25T14:11:25;2.77;;;2.43;;
45548;SDS011;31270;48.328;10.096;2023-04-25T14:13:51;4.80;;;2.80;;
45548;SDS011;31270;48.328;10.096;2023-04-25T14:16:17;5.47;;;3.50;;
45548;SDS011;31270;48.328;10.096;2023-04-25T14:18:43;5.70;;;3.03;;
45548;SDS011;31270;48.328;10.096;2023-04-25T14:21:09;4.93;;;3.30;;
45548;SDS011;31270;48.328;10.096;2023-04-25T14:23:35;3.37;;;2.73;;
45548;SDS011;31270;48.328;10.096;2023-04-25T14:26:01;5.00;;;2.73;;
45548;SDS011;31270;48.328;10.096;2023-04-25T14:28:27;2.83;;;2.33;;
45548;SDS011;31270;48.328;10.096;2023-04-25T14:30:52;2.33;;;2.00;;
45548;SDS011;31270;48.328;10.096;2023-04-25T14:33:18;3.03;;;2.70;;
45548;SDS011;31270;48.328;10.096;2023-04-25T14:35:43;2.97;;;2.60;;
45548;SDS011;31270;48.328;10.096;2023-04-25T14:38:09;2.90;;;2.60;;
45548;SDS011;31270;48.328;10.096;2023-04-25T14:40:35;2.70;;;2.50;;
45548;SDS011;31270;48.328;10.096;2023-04-25T14:43:02;5.13;;;2.30;;
45548;SDS011;31270;48.328;10.096;2023-04-25T14:45:28;3.10;;;2.80;;
45548;SDS011;31270;48.328;10.096;2023-04-25T14:47:53;3.30;;;2.30;;
45548;SDS011;31270;48.328;10.096;2023-04-25T14:50:19;4.90;;;2.40;;